Terminal Aerodrome Forecast
Issued by NWS Medford, OR

Current Version | Previous Version | Text Only | Print | Product List | Glossary On
Versions: 1 2 3 4 5 6 7 8 9 10 11 12
586
FTUS46 KMFR 261720
TAFMFR
TAF
KMFR 261720Z 2618/2718 VRB06KT P6SM BKN040 BKN120
     FM262300 33010G16KT P6SM OVC040
     FM270400 VRB04KT P6SM FEW020 OVC040=

USA.gov is the U.S. government's official web portal to all federal, state and local government web resources and services.